首页
METAR-TAF:

METAR-TAF

机场 :

薩利納斯, 厄瓜多尔

纬度: 02-12-18S, 经度: 080-59-20W, 海拔: 5米

当前天气观测

该预报发布于3小时和20分钟前的23:00 UTC
风速10节,风向南转西南
温度 25°C
湿度 83%
气压 1010 hPa
能见度10公里或以上
少量云层高于700英尺

METAR: SESA 242300Z 21010KT 9999 FEW007 25/22 Q1010 RMK A2985

时间: 21:20 (02:20 UTC)


TAF: 丢失

超过4000个机场的气象观测和天气预报(METAR&TAF报告)。

可查询的气象台以黄色和红色小点在地图上表示。

将鼠标移到小点上方,可查看气象台名称。

然后点击查看天气观测和预报。

如需切换地图:点击带黑十字的绿色按钮放大地图;点击带横线的绿色按钮缩小地图;或者点击绿色箭头查看邻近地区的地图。


METAR-TAF: